Bluenose II — CYJZ — position and weather

sailwx.info

Track history (hours):
 
Tides and Currents Weather Stations Pressure Air Temp Water Temp Dewpoint Dewpoint Depression Visibility Wind Speed Wind Dir Waves Ship Positions

Bluenose II (Canada)

Ship's website: http://www.schoonerbluenose2.ca/

Last reported at 2019-Sep-26 11:52 UTC. Time now 2019-Dec-12 08:01 UTC.
Position N 44°26' W 063°30'.
Warning: this ship's position is months out of date.

Length 55 m; draft 5 m.

Type: Sailing vessel. MMSI: 316245000.

Date/timePositionNaut miles runAvg speedWind from/ knotsBaromVisibWave heightAir tempDewpointWater temp
2019-Sep-26 11:52N 44°26' W 063°30'3 8.9
2019-Sep-26 11:30N 44°29' W 063°30'4 9.0
2019-Sep-26 11:00N 44°33' W 063°32'5 9.0
2019-Sep-26 10:30N 44°38' W 063°33'2 3.1
2019-Sep-26 10:00N 44°39' W 063°34'0 0.0
2019-Sep-26 09:30N 44°39' W 063°34'0 0.0
2019-Sep-26 09:00N 44°39' W 063°34'0 0.0
2019-Sep-26 08:30N 44°39' W 063°34'0 0.0
2019-Sep-26 08:00N 44°39' W 063°34'0 0.0
2019-Sep-26 07:30N 44°39' W 063°34'0 0.0
2019-Sep-26 07:00N 44°39' W 063°34'0 0.0
2019-Sep-26 06:30N 44°39' W 063°34'0 0.0
2019-Sep-26 06:00N 44°39' W 063°34'0 0.0
2019-Sep-26 05:30N 44°39' W 063°34'0 0.0
2019-Sep-26 05:00N 44°39' W 063°34'0 0.0
2019-Sep-26 04:30N 44°39' W 063°34'0 0.0
2019-Sep-26 04:00N 44°39' W 063°34'0 0.0
2019-Sep-26 03:30N 44°39' W 063°34'0 0.0
2019-Sep-26 03:00N 44°39' W 063°34'0 0.0
2019-Sep-26 02:30N 44°39' W 063°34'0 0.0
2019-Sep-26 02:00N 44°39' W 063°34'0 0.0
2019-Sep-26 01:30N 44°39' W 063°34'0 0.0
2019-Sep-26 01:00N 44°39' W 063°34'0 0.0
2019-Sep-26 00:30N 44°39' W 063°34'0 0.0
2019-Sep-26 00:00N 44°39' W 063°34'0 0.0
2019-Sep-25 23:30N 44°39' W 063°34'0 0.0
2019-Sep-25 23:00N 44°39' W 063°34'0 0.0
2019-Sep-25 22:30N 44°39' W 063°34'0 0.0
2019-Sep-25 22:00N 44°39' W 063°34'0 1.0
2019-Sep-25 21:30N 44°39' W 063°34'2 4.4
2019-Sep-25 21:00N 44°37' W 063°33'3 5.3
2019-Sep-25 20:30N 44°39' W 063°34'0 0.9
2019-Sep-25 20:00N 44°39' W 063°34'0 0.0
2019-Sep-25 19:30N 44°39' W 063°34'0 0.0
2019-Sep-25 19:00N 44°39' W 063°34'0 0.0
2019-Sep-25 18:30N 44°39' W 063°34'1 1.8
2019-Sep-25 18:01N 44°38' W 063°33'1 2.3
2019-Sep-25 17:30N 44°37' W 063°33'2 4.2
2019-Sep-25 17:01N 44°39' W 063°34'0 0.4
2019-Sep-25 16:30N 44°39' W 063°34'0 0.0
2019-Sep-25 15:59N 44°39' W 063°34'0 0.0
2019-Sep-25 15:29N 44°39' W 063°34'0 0.0
2019-Sep-25 14:59N 44°39' W 063°34'0 0.0
2019-Sep-25 14:31N 44°39' W 063°34'1 1.9
2019-Sep-25 14:00N 44°38' W 063°33'1 1.8
2019-Sep-25 13:30N 44°37' W 063°33'2 3.6
2019-Sep-25 13:01N 44°39' W 063°34'0 0.1
2019-Sep-25 12:30N 44°39' W 063°34'0 0.0
2019-Sep-25 11:59N 44°39' W 063°34'0 0.0
2019-Sep-25 11:29N 44°39' W 063°34'0 0.0
2019-Sep-25 10:59N 44°39' W 063°34'0 0.0
2019-Sep-25 10:29N 44°39' W 063°34'0 0.0
2019-Sep-25 09:59N 44°39' W 063°34'0 0.0
2019-Sep-25 09:29N 44°39' W 063°34'0 0.0
2019-Sep-25 08:59N 44°39' W 063°34'0 0.0
2019-Sep-25 08:29N 44°39' W 063°34'0 0.0
2019-Sep-25 07:59N 44°39' W 063°34'0 0.0
2019-Sep-25 07:29N 44°39' W 063°34'0 0.0
2019-Sep-25 06:59N 44°39' W 063°34'0 0.0
2019-Sep-25 06:29N 44°39' W 063°34'0 0.0
2019-Sep-25 05:59N 44°39' W 063°34'0 0.0
2019-Sep-25 05:29N 44°39' W 063°34'0 0.0
2019-Sep-25 04:59N 44°39' W 063°34'0 0.0
2019-Sep-25 04:29N 44°39' W 063°34'0 0.0
2019-Sep-25 03:59N 44°39' W 063°34'0 0.0
2019-Sep-25 03:29N 44°39' W 063°34'0 0.0
2019-Sep-25 02:59N 44°39' W 063°34'0 0.0
2019-Sep-25 02:29N 44°39' W 063°34'0 0.0
2019-Sep-25 01:58N 44°39' W 063°34'0 0.0
2019-Sep-25 01:29N 44°39' W 063°34'0 0.0
2019-Sep-25 00:58N 44°39' W 063°34'0 0.0
2019-Sep-25 00:29N 44°39' W 063°34'0 0.0
2019-Sep-24 23:59N 44°39' W 063°34'0 0.0
2019-Sep-24 23:29N 44°39' W 063°34'0 0.0
2019-Sep-24 22:59N 44°39' W 063°34'0 0.0
2019-Sep-24 22:29N 44°39' W 063°34'0 0.0
2019-Sep-24 21:59N 44°39' W 063°34'0 0.0
2019-Sep-24 21:28N 44°39' W 063°34'0 0.0
2019-Sep-24 20:58N 44°39' W 063°34'0 0.0
2019-Sep-24 20:29N 44°39' W 063°34'0 0.0
2019-Sep-24 19:59N 44°39' W 063°34'0 0.0
2019-Sep-24 19:29N 44°39' W 063°34'0 0.0
2019-Sep-24 18:59N 44°39' W 063°34'0 0.0
2019-Sep-24 18:29N 44°39' W 063°34'1 1.4
2019-Sep-24 18:00N 44°39' W 063°33'1 1.2
2019-Sep-24 17:30N 44°39' W 063°33'0 0.4
2019-Sep-24 17:00N 44°39' W 063°34'1 1.1
2019-Sep-24 16:29N 44°39' W 063°34'0 0.0
2019-Sep-24 15:59N 44°39' W 063°34'0 0.0
2019-Sep-24 15:29N 44°39' W 063°34'0 0.0
2019-Sep-24 14:59N 44°39' W 063°34'0 0.0
2019-Sep-24 14:31N 44°39' W 063°34'1 1.5
2019-Sep-24 14:01N 44°39' W 063°33'1 1.4
2019-Sep-24 13:31N 44°38' W 063°33'2 3.0
2019-Sep-24 13:01N 44°39' W 063°34'1 1.1
2019-Sep-24 12:30N 44°39' W 063°34'0 0.0
2019-Sep-24 12:00N 44°39' W 063°34'0 0.0
2019-Sep-24 11:30N 44°39' W 063°34'0 0.0
2019-Sep-24 11:00N 44°39' W 063°34'0 0.0
2019-Sep-24 10:30N 44°39' W 063°34'0 0.0
2019-Sep-24 10:00N 44°39' W 063°34'0 0.0
2019-Sep-24 09:30N 44°39' W 063°34'0 0.0
2019-Sep-24 09:00N 44°39' W 063°34'0 0.0
2019-Sep-24 08:30N 44°39' W 063°34'0 0.0
2019-Sep-24 08:00N 44°39' W 063°34'0 0.0
2019-Sep-24 07:30N 44°39' W 063°34'0 0.0
2019-Sep-24 07:00N 44°39' W 063°34'0 0.0
2019-Sep-24 06:30N 44°39' W 063°34'0 0.0
2019-Sep-24 06:00N 44°39' W 063°34'0 0.0
2019-Sep-24 05:30N 44°39' W 063°34'0 0.0
2019-Sep-24 05:00N 44°39' W 063°34'0 0.0
2019-Sep-24 04:30N 44°39' W 063°34'0 0.0
2019-Sep-24 04:00N 44°39' W 063°34'0 0.0
2019-Sep-24 03:30N 44°39' W 063°34'0 0.0
2019-Sep-24 03:00N 44°39' W 063°34'0 0.0
2019-Sep-24 02:29N 44°39' W 063°34'0 0.0
2019-Sep-24 02:00N 44°39' W 063°34'0 0.0
2019-Sep-24 01:30N 44°39' W 063°34'0 0.0
2019-Sep-24 01:00N 44°39' W 063°34'0 0.0
2019-Sep-24 00:30N 44°39' W 063°34'0 0.0
2019-Sep-24 00:00N 44°39' W 063°34'0 0.0
2019-Sep-23 23:30N 44°39' W 063°34'0 0.0
2019-Sep-23 23:00N 44°39' W 063°34'0 0.0
2019-Sep-23 22:30N 44°39' W 063°34'0 0.0
2019-Sep-23 22:00N 44°39' W 063°34'0 0.0
2019-Sep-23 21:30N 44°39' W 063°34'0 0.0
2019-Sep-23 20:59N 44°39' W 063°34'0 0.0
2019-Sep-23 20:30N 44°39' W 063°34'0 0.0
2019-Sep-23 20:00N 44°39' W 063°34'0 0.0
2019-Sep-23 19:30N 44°39' W 063°34'0 0.0
2019-Sep-23 19:00N 44°39' W 063°34'0 0.0
2019-Sep-23 18:30N 44°39' W 063°34'0 0.0
2019-Sep-23 18:00N 44°39' W 063°34'0 0.0
2019-Sep-23 17:30N 44°39' W 063°34'0 0.0
2019-Sep-23 16:59N 44°39' W 063°34'0 0.0
2019-Sep-23 16:27N 44°39' W 063°34'0 0.0
2019-Sep-23 16:00N 44°39' W 063°34'0 0.0
2019-Sep-23 15:30N 44°39' W 063°34'0 0.0
2019-Sep-23 14:59N 44°39' W 063°34'0 0.0
2019-Sep-23 14:30N 44°39' W 063°34'1 2.1
2019-Sep-23 14:00N 44°38' W 063°33'2 3.6
2019-Sep-23 13:31N 44°36' W 063°33'2 3.1
2019-Sep-23 13:00N 44°38' W 063°33'1 2.3
2019-Sep-23 12:31N 44°39' W 063°34'0 0.1
2019-Sep-23 11:59N 44°39' W 063°34'0 0.0
2019-Sep-23 11:29N 44°39' W 063°34'0 0.0
2019-Sep-23 10:59N 44°39' W 063°34'0 0.0
2019-Sep-23 10:30N 44°39' W 063°34'0 0.0
2019-Sep-23 09:59N 44°39' W 063°34'0 0.0
2019-Sep-23 09:29N 44°39' W 063°34'0 0.0
2019-Sep-23 08:59N 44°39' W 063°34'0 0.0
2019-Sep-23 08:29N 44°39' W 063°34'0 0.0
2019-Sep-23 07:59N 44°39' W 063°34'0 0.0
2019-Sep-23 07:29N 44°39' W 063°34'0 0.0
2019-Sep-23 06:59N 44°39' W 063°34'0 0.0
2019-Sep-23 06:29N 44°39' W 063°34'0 0.0
2019-Sep-23 05:59N 44°39' W 063°34'0 0.0
2019-Sep-23 05:29N 44°39' W 063°34'0 0.0
2019-Sep-23 04:59N 44°39' W 063°34'0 0.0
2019-Sep-23 04:29N 44°39' W 063°34'0 0.0
2019-Sep-23 03:59N 44°39' W 063°34'0 0.0
2019-Sep-23 03:29N 44°39' W 063°34'0 0.0
2019-Sep-23 02:59N 44°39' W 063°34'0 0.0
2019-Sep-23 01:59N 44°39' W 063°34'0 0.0
2019-Sep-23 01:29N 44°39' W 063°34'0 0.0
2019-Sep-23 00:59N 44°39' W 063°34'0 0.0
2019-Sep-23 00:29N 44°39' W 063°34'0 0.0
2019-Sep-22 23:59N 44°39' W 063°34'0 0.0
2019-Sep-22 23:29N 44°39' W 063°34'0 0.0
2019-Sep-22 22:59N 44°39' W 063°34'0 0.0
2019-Sep-22 22:29N 44°39' W 063°34'0 0.0
2019-Sep-22 21:59N 44°39' W 063°34'0 0.0
2019-Sep-22 21:29N 44°39' W 063°34'0 0.0
2019-Sep-22 20:59N 44°39' W 063°34'0 0.0
2019-Sep-22 20:29N 44°39' W 063°34'0 0.0
2019-Sep-22 19:59N 44°39' W 063°34'0 0.0
2019-Sep-22 19:29N 44°39' W 063°34'0 0.0
2019-Sep-22 18:59N 44°39' W 063°34'0 0.0
2019-Sep-22 18:30N 44°39' W 063°34'1 1.4
2019-Sep-22 18:00N 44°39' W 063°33'3 6.0
2019-Sep-22 17:30N 44°36' W 063°32'3 5.5
2019-Sep-22 17:00N 44°39' W 063°33'1 1.3
2019-Sep-22 16:30N 44°39' W 063°34'0 0.2
2019-Sep-22 15:59N 44°39' W 063°34'0 0.0
2019-Sep-22 15:29N 44°39' W 063°34'0 0.0
2019-Sep-22 14:59N 44°39' W 063°34'0 0.0
2019-Sep-22 14:30N 44°39' W 063°34'1 1.5
2019-Sep-22 14:00N 44°39' W 063°33'2 4.3
2019-Sep-22 13:30N 44°36' W 063°32'2 4.9
2019-Sep-22 13:00N 44°39' W 063°33'0 1.0
2019-Sep-22 12:31N 44°39' W 063°34'0 0.0
2019-Sep-22 11:58N 44°39' W 063°34'0 0.0
2019-Sep-22 11:28N 44°39' W 063°34'0 0.0
2019-Sep-22 10:58N 44°39' W 063°34'0 0.0
2019-Sep-22 10:28N 44°39' W 063°34'0 0.0
2019-Sep-22 09:58N 44°39' W 063°34'0 0.0
2019-Sep-22 09:28N 44°39' W 063°34'0 0.0
2019-Sep-22 08:58N 44°39' W 063°34'0 0.0
2019-Sep-22 08:28N 44°39' W 063°34'0 0.0
2019-Sep-22 07:58N 44°39' W 063°34'0 0.0
2019-Sep-22 07:28N 44°39' W 063°34'0 0.0
2019-Sep-22 06:58N 44°39' W 063°34'0 0.0
2019-Sep-22 06:28N 44°39' W 063°34'0 0.0
2019-Sep-22 05:58N 44°39' W 063°34'0 0.0
2019-Sep-22 05:28N 44°39' W 063°34'0 0.0
2019-Sep-22 04:58N 44°39' W 063°34'0 0.0
2019-Sep-22 04:28N 44°39' W 063°34'0 0.0
2019-Sep-22 03:58N 44°39' W 063°34'0 0.0
2019-Sep-22 03:28N 44°39' W 063°34'0 0.0
2019-Sep-22 02:58N 44°39' W 063°34'0 0.0
2019-Sep-22 02:28N 44°39' W 063°34'0 0.0
2019-Sep-22 01:58N 44°39' W 063°34'0 0.0
2019-Sep-22 01:28N 44°39' W 063°34'0 0.0
2019-Sep-22 00:58N 44°39' W 063°34'0 0.0
2019-Sep-22 00:28N 44°39' W 063°34'0 0.0
2019-Sep-21 23:58N 44°39' W 063°34'0 0.0
2019-Sep-21 23:28N 44°39' W 063°34'0 0.0
2019-Sep-21 22:58N 44°39' W 063°34'0 0.0
2019-Sep-21 22:28N 44°39' W 063°34'0 0.0
2019-Sep-21 21:58N 44°39' W 063°34'0 0.0
2019-Sep-21 21:28N 44°39' W 063°34'0 0.0
2019-Sep-21 20:58N 44°39' W 063°34'1 1.9
2019-Sep-21 20:30N 44°38' W 063°33'2 4.0
2019-Sep-21 20:00N 44°36' W 063°33'3 6.0
2019-Sep-21 19:30N 44°34' W 063°31'3 6.7
2019-Sep-21 19:00N 44°31' W 063°30'4 7.6
2019-Sep-21 18:30N 44°27' W 063°27'  
Track history (hours):
 
Tides and Currents Weather Stations Pressure Air Temp Water Temp Dewpoint Dewpoint Depression Visibility Wind Speed Wind Dir Waves Ship Positions

Bluenose II (Canada)

Ship's website: http://www.schoonerbluenose2.ca/

Last reported at 2019-Sep-26 11:52 UTC. Time now 2019-Dec-12 08:01 UTC.
Position N 44°26' W 063°30'.
Warning: this ship's position is months out of date.

Length 55 m; draft 5 m.

Type: Sailing vessel. MMSI: 316245000.

Date/timePositionNaut miles runAvg speedWind from/ knotsBaromVisibWave heightAir tempDewpointWater temp
2019-Sep-26 11:52N 44°26' W 063°30'3 8.9
2019-Sep-26 11:30N 44°29' W 063°30'4 9.0
2019-Sep-26 11:00N 44°33' W 063°32'5 9.0
2019-Sep-26 10:30N 44°38' W 063°33'2 3.1
2019-Sep-26 10:00N 44°39' W 063°34'0 0.0
2019-Sep-26 09:30N 44°39' W 063°34'0 0.0
2019-Sep-26 09:00N 44°39' W 063°34'0 0.0
2019-Sep-26 08:30N 44°39' W 063°34'0 0.0
2019-Sep-26 08:00N 44°39' W 063°34'0 0.0
2019-Sep-26 07:30N 44°39' W 063°34'0 0.0
2019-Sep-26 07:00N 44°39' W 063°34'0 0.0
2019-Sep-26 06:30N 44°39' W 063°34'0 0.0
2019-Sep-26 06:00N 44°39' W 063°34'0 0.0
2019-Sep-26 05:30N 44°39' W 063°34'0 0.0
2019-Sep-26 05:00N 44°39' W 063°34'0 0.0
2019-Sep-26 04:30N 44°39' W 063°34'0 0.0
2019-Sep-26 04:00N 44°39' W 063°34'0 0.0
2019-Sep-26 03:30N 44°39' W 063°34'0 0.0
2019-Sep-26 03:00N 44°39' W 063°34'0 0.0
2019-Sep-26 02:30N 44°39' W 063°34'0 0.0
2019-Sep-26 02:00N 44°39' W 063°34'0 0.0
2019-Sep-26 01:30N 44°39' W 063°34'0 0.0
2019-Sep-26 01:00N 44°39' W 063°34'0 0.0
2019-Sep-26 00:30N 44°39' W 063°34'0 0.0
2019-Sep-26 00:00N 44°39' W 063°34'0 0.0
2019-Sep-25 23:30N 44°39' W 063°34'0 0.0
2019-Sep-25 23:00N 44°39' W 063°34'0 0.0
2019-Sep-25 22:30N 44°39' W 063°34'0 0.0
2019-Sep-25 22:00N 44°39' W 063°34'0 1.0
2019-Sep-25 21:30N 44°39' W 063°34'2 4.4
2019-Sep-25 21:00N 44°37' W 063°33'3 5.3
2019-Sep-25 20:30N 44°39' W 063°34'0 0.9
2019-Sep-25 20:00N 44°39' W 063°34'0 0.0
2019-Sep-25 19:30N 44°39' W 063°34'0 0.0
2019-Sep-25 19:00N 44°39' W 063°34'0 0.0
2019-Sep-25 18:30N 44°39' W 063°34'1 1.8
2019-Sep-25 18:01N 44°38' W 063°33'1 2.3
2019-Sep-25 17:30N 44°37' W 063°33'2 4.2
2019-Sep-25 17:01N 44°39' W 063°34'0 0.4
2019-Sep-25 16:30N 44°39' W 063°34'0 0.0
2019-Sep-25 15:59N 44°39' W 063°34'0 0.0
2019-Sep-25 15:29N 44°39' W 063°34'0 0.0
2019-Sep-25 14:59N 44°39' W 063°34'0 0.0
2019-Sep-25 14:31N 44°39' W 063°34'1 1.9
2019-Sep-25 14:00N 44°38' W 063°33'1 1.8
2019-Sep-25 13:30N 44°37' W 063°33'2 3.6
2019-Sep-25 13:01N 44°39' W 063°34'0 0.1
2019-Sep-25 12:30N 44°39' W 063°34'0 0.0
2019-Sep-25 11:59N 44°39' W 063°34'0 0.0
2019-Sep-25 11:29N 44°39' W 063°34'0 0.0
2019-Sep-25 10:59N 44°39' W 063°34'0 0.0
2019-Sep-25 10:29N 44°39' W 063°34'0 0.0
2019-Sep-25 09:59N 44°39' W 063°34'0 0.0
2019-Sep-25 09:29N 44°39' W 063°34'0 0.0
2019-Sep-25 08:59N 44°39' W 063°34'0 0.0
2019-Sep-25 08:29N 44°39' W 063°34'0 0.0
2019-Sep-25 07:59N 44°39' W 063°34'0 0.0
2019-Sep-25 07:29N 44°39' W 063°34'0 0.0
2019-Sep-25 06:59N 44°39' W 063°34'0 0.0
2019-Sep-25 06:29N 44°39' W 063°34'0 0.0
2019-Sep-25 05:59N 44°39' W 063°34'0 0.0
2019-Sep-25 05:29N 44°39' W 063°34'0 0.0
2019-Sep-25 04:59N 44°39' W 063°34'0 0.0
2019-Sep-25 04:29N 44°39' W 063°34'0 0.0
2019-Sep-25 03:59N 44°39' W 063°34'0 0.0
2019-Sep-25 03:29N 44°39' W 063°34'0 0.0
2019-Sep-25 02:59N 44°39' W 063°34'0 0.0
2019-Sep-25 02:29N 44°39' W 063°34'0 0.0
2019-Sep-25 01:58N 44°39' W 063°34'0 0.0
2019-Sep-25 01:29N 44°39' W 063°34'0 0.0
2019-Sep-25 00:58N 44°39' W 063°34'0 0.0
2019-Sep-25 00:29N 44°39' W 063°34'0 0.0
2019-Sep-24 23:59N 44°39' W 063°34'0 0.0
2019-Sep-24 23:29N 44°39' W 063°34'0 0.0
2019-Sep-24 22:59N 44°39' W 063°34'0 0.0
2019-Sep-24 22:29N 44°39' W 063°34'0 0.0
2019-Sep-24 21:59N 44°39' W 063°34'0 0.0
2019-Sep-24 21:28N 44°39' W 063°34'0 0.0
2019-Sep-24 20:58N 44°39' W 063°34'0 0.0
2019-Sep-24 20:29N 44°39' W 063°34'0 0.0
2019-Sep-24 19:59N 44°39' W 063°34'0 0.0
2019-Sep-24 19:29N 44°39' W 063°34'0 0.0
2019-Sep-24 18:59N 44°39' W 063°34'0 0.0
2019-Sep-24 18:29N 44°39' W 063°34'1 1.4
2019-Sep-24 18:00N 44°39' W 063°33'1 1.2
2019-Sep-24 17:30N 44°39' W 063°33'0 0.4
2019-Sep-24 17:00N 44°39' W 063°34'1 1.1
2019-Sep-24 16:29N 44°39' W 063°34'0 0.0
2019-Sep-24 15:59N 44°39' W 063°34'0 0.0
2019-Sep-24 15:29N 44°39' W 063°34'0 0.0
2019-Sep-24 14:59N 44°39' W 063°34'0 0.0
2019-Sep-24 14:31N 44°39' W 063°34'1 1.5
2019-Sep-24 14:01N 44°39' W 063°33'1 1.4
2019-Sep-24 13:31N 44°38' W 063°33'2 3.0
2019-Sep-24 13:01N 44°39' W 063°34'1 1.1
2019-Sep-24 12:30N 44°39' W 063°34'0 0.0
2019-Sep-24 12:00N 44°39' W 063°34'0 0.0
2019-Sep-24 11:30N 44°39' W 063°34'0 0.0
2019-Sep-24 11:00N 44°39' W 063°34'0 0.0
2019-Sep-24 10:30N 44°39' W 063°34'0 0.0
2019-Sep-24 10:00N 44°39' W 063°34'0 0.0
2019-Sep-24 09:30N 44°39' W 063°34'0 0.0
2019-Sep-24 09:00N 44°39' W 063°34'0 0.0
2019-Sep-24 08:30N 44°39' W 063°34'0 0.0
2019-Sep-24 08:00N 44°39' W 063°34'0 0.0
2019-Sep-24 07:30N 44°39' W 063°34'0 0.0
2019-Sep-24 07:00N 44°39' W 063°34'0 0.0
2019-Sep-24 06:30N 44°39' W 063°34'0 0.0
2019-Sep-24 06:00N 44°39' W 063°34'0 0.0
2019-Sep-24 05:30N 44°39' W 063°34'0 0.0
2019-Sep-24 05:00N 44°39' W 063°34'0 0.0
2019-Sep-24 04:30N 44°39' W 063°34'0 0.0
2019-Sep-24 04:00N 44°39' W 063°34'0 0.0
2019-Sep-24 03:30N 44°39' W 063°34'0 0.0
2019-Sep-24 03:00N 44°39' W 063°34'0 0.0
2019-Sep-24 02:29N 44°39' W 063°34'0 0.0
2019-Sep-24 02:00N 44°39' W 063°34'0 0.0
2019-Sep-24 01:30N 44°39' W 063°34'0 0.0
2019-Sep-24 01:00N 44°39' W 063°34'0 0.0
2019-Sep-24 00:30N 44°39' W 063°34'0 0.0
2019-Sep-24 00:00N 44°39' W 063°34'0 0.0
2019-Sep-23 23:30N 44°39' W 063°34'0 0.0
2019-Sep-23 23:00N 44°39' W 063°34'0 0.0
2019-Sep-23 22:30N 44°39' W 063°34'0 0.0
2019-Sep-23 22:00N 44°39' W 063°34'0 0.0
2019-Sep-23 21:30N 44°39' W 063°34'0 0.0
2019-Sep-23 20:59N 44°39' W 063°34'0 0.0
2019-Sep-23 20:30N 44°39' W 063°34'0 0.0
2019-Sep-23 20:00N 44°39' W 063°34'0 0.0
2019-Sep-23 19:30N 44°39' W 063°34'0 0.0
2019-Sep-23 19:00N 44°39' W 063°34'0 0.0
2019-Sep-23 18:30N 44°39' W 063°34'0 0.0
2019-Sep-23 18:00N 44°39' W 063°34'0 0.0
2019-Sep-23 17:30N 44°39' W 063°34'0 0.0
2019-Sep-23 16:59N 44°39' W 063°34'0 0.0
2019-Sep-23 16:27N 44°39' W 063°34'0 0.0
2019-Sep-23 16:00N 44°39' W 063°34'0 0.0
2019-Sep-23 15:30N 44°39' W 063°34'0 0.0
2019-Sep-23 14:59N 44°39' W 063°34'0 0.0
2019-Sep-23 14:30N 44°39' W 063°34'1 2.1
2019-Sep-23 14:00N 44°38' W 063°33'2 3.6
2019-Sep-23 13:31N 44°36' W 063°33'2 3.1
2019-Sep-23 13:00N 44°38' W 063°33'1 2.3
2019-Sep-23 12:31N 44°39' W 063°34'0 0.1
2019-Sep-23 11:59N 44°39' W 063°34'0 0.0
2019-Sep-23 11:29N 44°39' W 063°34'0 0.0
2019-Sep-23 10:59N 44°39' W 063°34'0 0.0
2019-Sep-23 10:30N 44°39' W 063°34'0 0.0
2019-Sep-23 09:59N 44°39' W 063°34'0 0.0
2019-Sep-23 09:29N 44°39' W 063°34'0 0.0
2019-Sep-23 08:59N 44°39' W 063°34'0 0.0
2019-Sep-23 08:29N 44°39' W 063°34'0 0.0
2019-Sep-23 07:59N 44°39' W 063°34'0 0.0
2019-Sep-23 07:29N 44°39' W 063°34'0 0.0
2019-Sep-23 06:59N 44°39' W 063°34'0 0.0
2019-Sep-23 06:29N 44°39' W 063°34'0 0.0
2019-Sep-23 05:59N 44°39' W 063°34'0 0.0
2019-Sep-23 05:29N 44°39' W 063°34'0 0.0
2019-Sep-23 04:59N 44°39' W 063°34'0 0.0
2019-Sep-23 04:29N 44°39' W 063°34'0 0.0
2019-Sep-23 03:59N 44°39' W 063°34'0 0.0
2019-Sep-23 03:29N 44°39' W 063°34'0 0.0
2019-Sep-23 02:59N 44°39' W 063°34'0 0.0
2019-Sep-23 01:59N 44°39' W 063°34'0 0.0
2019-Sep-23 01:29N 44°39' W 063°34'0 0.0
2019-Sep-23 00:59N 44°39' W 063°34'0 0.0
2019-Sep-23 00:29N 44°39' W 063°34'0 0.0
2019-Sep-22 23:59N 44°39' W 063°34'0 0.0
2019-Sep-22 23:29N 44°39' W 063°34'0 0.0
2019-Sep-22 22:59N 44°39' W 063°34'0 0.0
2019-Sep-22 22:29N 44°39' W 063°34'0 0.0
2019-Sep-22 21:59N 44°39' W 063°34'0 0.0
2019-Sep-22 21:29N 44°39' W 063°34'0 0.0
2019-Sep-22 20:59N 44°39' W 063°34'0 0.0
2019-Sep-22 20:29N 44°39' W 063°34'0 0.0
2019-Sep-22 19:59N 44°39' W 063°34'0 0.0
2019-Sep-22 19:29N 44°39' W 063°34'0 0.0
2019-Sep-22 18:59N 44°39' W 063°34'0 0.0
2019-Sep-22 18:30N 44°39' W 063°34'1 1.4
2019-Sep-22 18:00N 44°39' W 063°33'3 6.0
2019-Sep-22 17:30N 44°36' W 063°32'3 5.5
2019-Sep-22 17:00N 44°39' W 063°33'1 1.3
2019-Sep-22 16:30N 44°39' W 063°34'0 0.2
2019-Sep-22 15:59N 44°39' W 063°34'0 0.0
2019-Sep-22 15:29N 44°39' W 063°34'0 0.0
2019-Sep-22 14:59N 44°39' W 063°34'0 0.0
2019-Sep-22 14:30N 44°39' W 063°34'1 1.5
2019-Sep-22 14:00N 44°39' W 063°33'2 4.3
2019-Sep-22 13:30N 44°36' W 063°32'2 4.9
2019-Sep-22 13:00N 44°39' W 063°33'0 1.0
2019-Sep-22 12:31N 44°39' W 063°34'0 0.0
2019-Sep-22 11:58N 44°39' W 063°34'0 0.0
2019-Sep-22 11:28N 44°39' W 063°34'0 0.0
2019-Sep-22 10:58N 44°39' W 063°34'0 0.0
2019-Sep-22 10:28N 44°39' W 063°34'0 0.0
2019-Sep-22 09:58N 44°39' W 063°34'0 0.0
2019-Sep-22 09:28N 44°39' W 063°34'0 0.0
2019-Sep-22 08:58N 44°39' W 063°34'0 0.0
2019-Sep-22 08:28N 44°39' W 063°34'0 0.0
2019-Sep-22 07:58N 44°39' W 063°34'0 0.0
2019-Sep-22 07:28N 44°39' W 063°34'0 0.0
2019-Sep-22 06:58N 44°39' W 063°34'0 0.0
2019-Sep-22 06:28N 44°39' W 063°34'0 0.0
2019-Sep-22 05:58N 44°39' W 063°34'0 0.0
2019-Sep-22 05:28N 44°39' W 063°34'0 0.0
2019-Sep-22 04:58N 44°39' W 063°34'0 0.0
2019-Sep-22 04:28N 44°39' W 063°34'0 0.0
2019-Sep-22 03:58N 44°39' W 063°34'0 0.0
2019-Sep-22 03:28N 44°39' W 063°34'0 0.0
2019-Sep-22 02:58N 44°39' W 063°34'0 0.0
2019-Sep-22 02:28N 44°39' W 063°34'0 0.0
2019-Sep-22 01:58N 44°39' W 063°34'0 0.0
2019-Sep-22 01:28N 44°39' W 063°34'0 0.0
2019-Sep-22 00:58N 44°39' W 063°34'0 0.0
2019-Sep-22 00:28N 44°39' W 063°34'0 0.0
2019-Sep-21 23:58N 44°39' W 063°34'0 0.0
2019-Sep-21 23:28N 44°39' W 063°34'0 0.0
2019-Sep-21 22:58N 44°39' W 063°34'0 0.0
2019-Sep-21 22:28N 44°39' W 063°34'0 0.0
2019-Sep-21 21:58N 44°39' W 063°34'0 0.0
2019-Sep-21 21:28N 44°39' W 063°34'0 0.0
2019-Sep-21 20:58N 44°39' W 063°34'1 1.9
2019-Sep-21 20:30N 44°38' W 063°33'2 4.0
2019-Sep-21 20:00N 44°36' W 063°33'3 6.0
2019-Sep-21 19:30N 44°34' W 063°31'3 6.7
2019-Sep-21 19:00N 44°31' W 063°30'4 7.6
2019-Sep-21 18:30N 44°27' W 063°27'  

Dump ship's entire track history